Time;durP1;ratioP1;P1;durP2;ratioP2;P2;SDS_P1;SDS_P2;PMS_P1;PMS_P2;Temp;Humidity;BMP_temperature;BMP_pressure;BME280_temperature;BME280_humidity;BME280_pressure;Samples;Min_cycle;Max_cycle;Signal;HPM_P1;HPM_P2
2022/10/19 00:01:16;;;;;;;4.03;1.90;;;;;;;;;;5031982;28;20081;-75
2022/10/19 00:03:43;;;;;;;3.40;1.92;;;;;;;;;;5032416;28;20073;-76
2022/10/19 00:06:10;;;;;;;4.65;2.00;;;;;;;;;;5029479;28;20109;-76
2022/10/19 00:08:36;;;;;;;3.88;2.00;;;;;;;;;;5031885;28;20124;-76
2022/10/19 00:11:02;;;;;;;4.22;1.70;;;;;;;;;;5022265;28;20077;-76
2022/10/19 00:13:28;;;;;;;4.43;1.90;;;;;;;;;;5027361;28;20551;-76
2022/10/19 00:15:54;;;;;;;2.97;1.63;;;;;;;;;;5031258;28;20080;-76
2022/10/19 00:18:20;;;;;;;3.88;1.60;;;;;;;;;;5030085;28;20077;-76
2022/10/19 00:20:46;;;;;;;1.85;1.67;;;;;;;;;;5025847;28;20140;-76
2022/10/19 00:23:12;;;;;;;3.78;1.95;;;;;;;;;;5027213;28;20640;-76
2022/10/19 00:25:38;;;;;;;3.45;1.70;;;;;;;;;;5026736;28;20041;-75
2022/10/19 00:28:04;;;;;;;6.30;1.88;;;;;;;;;;5022067;28;20056;-76
2022/10/19 00:30:30;;;;;;;2.42;1.75;;;;;;;;;;5020931;28;20516;-76
2022/10/19 00:32:56;;;;;;;3.53;1.80;;;;;;;;;;5030115;28;20045;-76
2022/10/19 00:35:22;;;;;;;4.55;1.70;;;;;;;;;;5025447;28;20056;-76
2022/10/19 00:37:48;;;;;;;3.10;1.73;;;;;;;;;;5023621;28;20055;-76
2022/10/19 00:40:14;;;;;;;4.10;2.00;;;;;;;;;;5021274;28;20124;-76
2022/10/19 00:42:40;;;;;;;6.05;1.98;;;;;;;;;;5025075;28;20053;-76
2022/10/19 00:45:12;;;;;;;7.88;2.00;;;;;;;;;;5026937;28;20508;-76
2022/10/19 00:47:38;;;;;;;4.28;1.75;;;;;;;;;;5027201;28;20084;-76
2022/10/19 00:50:08;;;;;;;7.95;2.00;;;;;;;;;;5024651;28;20042;-76
2022/10/19 00:52:34;;;;;;;6.25;2.00;;;;;;;;;;5028234;28;20033;-76
2022/10/19 00:55:00;;;;;;;9.52;2.15;;;;;;;;;;5032302;28;20953;-75
2022/10/19 00:57:28;;;;;;;7.28;1.80;;;;;;;;;;5028808;28;20088;-76
2022/10/19 00:59:54;;;;;;;8.52;2.25;;;;;;;;;;5028214;28;20080;-76
2022/10/19 01:02:20;;;;;;;6.55;2.03;;;;;;;;;;5026477;28;20050;-76
2022/10/19 01:04:48;;;;;;;3.85;1.70;;;;;;;;;;5027623;28;20112;-76
2022/10/19 01:07:14;;;;;;;4.78;2.03;;;;;;;;;;5024133;28;20045;-76
2022/10/19 01:09:40;;;;;;;5.25;1.70;;;;;;;;;;5028286;28;20045;-76
2022/10/19 01:12:24;;;;;;;6.20;1.98;;;;;;;;;;5019434;28;20449;-76
2022/10/19 01:15:16;;;;;;;3.35;1.90;;;;;;;;;;5029351;28;20072;-76
2022/10/19 01:17:57;;;;;;;7.07;1.70;;;;;;;;;;5029194;28;20045;-76
2022/10/19 01:20:23;;;;;;;3.63;1.88;;;;;;;;;;5028438;28;20052;-76
2022/10/19 01:22:49;;;;;;;3.95;1.90;;;;;;;;;;5026719;28;20389;-76
2022/10/19 01:25:23;;;;;;;4.32;1.90;;;;;;;;;;5028451;28;20029;-76
2022/10/19 01:28:08;;;;;;;5.97;2.05;;;;;;;;;;5030098;28;20038;-75
2022/10/19 01:30:40;;;;;;;7.63;2.10;;;;;;;;;;5021589;28;20037;-76
2022/10/19 01:33:21;;;;;;;5.43;2.03;;;;;;;;;;5028321;28;20049;-75
2022/10/19 01:36:15;;;;;;;3.75;1.92;;;;;;;;;;5020565;28;20474;-76
2022/10/19 01:38:49;;;;;;;6.10;2.20;;;;;;;;;;5018202;28;20033;-76
2022/10/19 01:41:21;;;;;;;4.20;2.00;;;;;;;;;;5015902;28;20045;-75
2022/10/19 01:43:56;;;;;;;3.47;1.75;;;;;;;;;;5026083;28;20072;-75
2022/10/19 01:46:28;;;;;;;4.13;1.83;;;;;;;;;;5028590;28;20043;-75
2022/10/19 01:49:00;;;;;;;4.88;1.95;;;;;;;;;;5028181;28;20042;-75
2022/10/19 01:51:28;;;;;;;5.15;2.05;;;;;;;;;;5029433;28;20037;-76
2022/10/19 01:53:56;;;;;;;7.07;2.17;;;;;;;;;;5028892;28;20433;-76
2022/10/19 01:56:24;;;;;;;5.63;1.83;;;;;;;;;;5028032;28;20045;-75
2022/10/19 01:58:51;;;;;;;6.57;2.30;;;;;;;;;;5024468;28;20042;-75
2022/10/19 02:01:19;;;;;;;3.47;1.90;;;;;;;;;;5026270;28;21672;-75
2022/10/19 02:03:45;;;;;;;4.93;2.10;;;;;;;;;;5031042;28;20401;-76
2022/10/19 02:06:12;;;;;;;4.38;1.77;;;;;;;;;;5018423;28;20393;-75
2022/10/19 02:08:42;;;;;;;4.28;2.13;;;;;;;;;;5028820;28;20131;-75
2022/10/19 02:11:08;;;;;;;6.13;2.13;;;;;;;;;;5027220;28;20064;-75
2022/10/19 02:13:35;;;;;;;3.72;2.13;;;;;;;;;;5021795;28;20037;-75
2022/10/19 02:16:03;;;;;;;5.57;2.20;;;;;;;;;;5029736;28;20030;-75
2022/10/19 02:18:34;;;;;;;6.57;2.10;;;;;;;;;;5027350;28;20088;-75
2022/10/19 02:21:01;;;;;;;6.00;2.28;;;;;;;;;;5021163;28;20057;-75
2022/10/19 02:23:27;;;;;;;8.43;2.25;;;;;;;;;;5029910;28;20050;-75
2022/10/19 02:25:54;;;;;;;6.82;2.05;;;;;;;;;;5025403;28;21837;-75
2022/10/19 02:28:20;;;;;;;5.10;1.88;;;;;;;;;;5022541;28;20081;-75
2022/10/19 02:30:52;;;;;;;6.63;2.15;;;;;;;;;;5022533;28;20037;-75
2022/10/19 02:33:18;;;;;;;8.20;2.20;;;;;;;;;;5023261;28;20057;-76
2022/10/19 02:35:44;;;;;;;9.35;2.15;;;;;;;;;;5029603;28;20051;-75
2022/10/19 02:38:13;;;;;;;7.03;2.05;;;;;;;;;;5023643;28;20113;-75
2022/10/19 02:40:40;;;;;;;5.22;2.05;;;;;;;;;;5021468;28;20057;-76
2022/10/19 02:43:09;;;;;;;7.88;2.00;;;;;;;;;;5019218;28;20046;-75
2022/10/19 02:45:38;;;;;;;7.63;2.15;;;;;;;;;;5020007;28;20080;-76
2022/10/19 02:48:10;;;;;;;5.78;2.22;;;;;;;;;;5028442;28;20491;-76
2022/10/19 02:50:36;;;;;;;7.35;2.10;;;;;;;;;;5030736;28;20041;-76
2022/10/19 02:53:03;;;;;;;7.35;2.30;;;;;;;;;;5028462;28;20493;-76
2022/10/19 02:55:30;;;;;;;9.02;2.17;;;;;;;;;;5029076;28;20635;-76
2022/10/19 02:57:56;;;;;;;7.18;2.08;;;;;;;;;;5029299;28;20052;-75
2022/10/19 03:00:22;;;;;;;8.88;2.47;;;;;;;;;;5033008;28;20488;-75
2022/10/19 03:02:51;;;;;;;9.02;2.33;;;;;;;;;;5032447;28;20124;-76
2022/10/19 03:05:17;;;;;;;7.32;2.13;;;;;;;;;;5027391;28;20100;-75
2022/10/19 03:07:43;;;;;;;10.38;2.80;;;;;;;;;;5031039;28;20041;-76
2022/10/19 03:10:09;;;;;;;6.80;2.58;;;;;;;;;;5027602;28;20132;-76
2022/10/19 03:12:35;;;;;;;9.35;2.17;;;;;;;;;;5023370;28;20034;-76
2022/10/19 03:15:01;;;;;;;5.82;2.50;;;;;;;;;;5033447;28;20068;-76
2022/10/19 03:17:27;;;;;;;9.07;2.30;;;;;;;;;;5027740;28;20050;-76
2022/10/19 03:19:53;;;;;;;8.18;2.58;;;;;;;;;;5029178;28;20046;-76
2022/10/19 03:22:19;;;;;;;10.80;3.20;;;;;;;;;;5020806;28;20049;-76
2022/10/19 03:24:45;;;;;;;5.25;2.50;;;;;;;;;;5031722;28;20041;-75
2022/10/19 03:27:11;;;;;;;8.82;2.85;;;;;;;;;;5030823;28;20408;-76
2022/10/19 03:29:37;;;;;;;9.15;2.90;;;;;;;;;;5027739;28;20041;-75
2022/10/19 03:32:03;;;;;;;7.45;2.55;;;;;;;;;;5012848;28;20041;-76
2022/10/19 03:34:29;;;;;;;7.88;2.42;;;;;;;;;;5019294;28;20072;-76
2022/10/19 03:36:57;;;;;;;9.45;2.90;;;;;;;;;;5027851;28;20045;-76
2022/10/19 03:39:24;;;;;;;10.55;2.90;;;;;;;;;;5028276;28;20049;-76
2022/10/19 03:41:50;;;;;;;9.45;2.60;;;;;;;;;;5031896;28;20038;-76
2022/10/19 03:44:16;;;;;;;8.60;2.55;;;;;;;;;;5027710;28;20044;-76
2022/10/19 03:46:42;;;;;;;6.55;2.40;;;;;;;;;;5031569;28;20045;-76
2022/10/19 03:49:08;;;;;;;4.88;2.05;;;;;;;;;;5020602;28;20045;-75
2022/10/19 03:51:35;;;;;;;8.15;2.72;;;;;;;;;;5029491;28;20398;-75
2022/10/19 03:54:02;;;;;;;7.53;2.10;;;;;;;;;;5031381;28;20045;-75
2022/10/19 03:56:29;;;;;;;4.85;2.10;;;;;;;;;;5028439;28;20049;-76
2022/10/19 03:58:58;;;;;;;7.47;2.40;;;;;;;;;;5024583;28;20054;-76
2022/10/19 04:01:26;;;;;;;9.05;2.50;;;;;;;;;;5026203;28;20041;-76
2022/10/19 04:03:56;;;;;;;6.50;2.22;;;;;;;;;;5031970;28;20106;-76
2022/10/19 04:06:24;;;;;;;7.40;2.22;;;;;;;;;;5029070;28;20373;-76
2022/10/19 04:08:50;;;;;;;7.13;2.33;;;;;;;;;;5028035;28;20038;-76
2022/10/19 04:11:17;;;;;;;7.78;2.00;;;;;;;;;;5022145;28;20489;-75
2022/10/19 04:13:43;;;;;;;6.60;2.22;;;;;;;;;;5026212;28;20055;-75
2022/10/19 04:16:09;;;;;;;9.68;2.20;;;;;;;;;;5030945;28;20049;-75
2022/10/19 04:18:35;;;;;;;6.78;2.30;;;;;;;;;;5031559;28;20057;-75
2022/10/19 04:21:03;;;;;;;7.18;2.05;;;;;;;;;;5025635;28;20046;-75
2022/10/19 04:23:31;;;;;;;6.35;2.28;;;;;;;;;;5019786;28;20083;-76
2022/10/19 04:26:01;;;;;;;7.78;2.25;;;;;;;;;;5029133;28;20733;-75
2022/10/19 04:28:27;;;;;;;7.32;2.58;;;;;;;;;;5029904;28;20128;-75
2022/10/19 04:30:56;;;;;;;11.75;2.35;;;;;;;;;;5027159;28;20045;-76
2022/10/19 04:33:22;;;;;;;6.30;2.33;;;;;;;;;;5017324;28;20049;-76
2022/10/19 04:35:48;;;;;;;8.07;2.20;;;;;;;;;;5028441;28;20041;-76
2022/10/19 04:38:14;;;;;;;6.38;2.10;;;;;;;;;;5027617;28;20068;-76
2022/10/19 04:40:40;;;;;;;6.57;2.20;;;;;;;;;;5023958;28;20410;-76
2022/10/19 04:43:06;;;;;;;8.02;2.38;;;;;;;;;;5020641;28;20053;-76
2022/10/19 04:45:34;;;;;;;8.88;2.38;;;;;;;;;;5029389;28;20052;-76
2022/10/19 04:48:00;;;;;;;11.73;2.25;;;;;;;;;;5029159;28;20041;-76
2022/10/19 04:50:26;;;;;;;3.75;2.00;;;;;;;;;;5027225;28;20038;-75
2022/10/19 04:52:52;;;;;;;7.20;2.35;;;;;;;;;;5030507;28;20124;-75
2022/10/19 04:55:18;;;;;;;7.78;2.25;;;;;;;;;;5028661;28;20140;-75
2022/10/19 04:57:44;;;;;;;11.00;2.55;;;;;;;;;;5025991;28;20170;-75
2022/10/19 05:00:11;;;;;;;6.00;2.25;;;;;;;;;;5025070;28;20432;-75
2022/10/19 05:02:41;;;;;;;8.90;2.58;;;;;;;;;;5028389;28;20083;-76
2022/10/19 05:05:08;;;;;;;10.15;2.50;;;;;;;;;;5029765;28;20041;-75
2022/10/19 05:07:34;;;;;;;7.43;2.40;;;;;;;;;;5029435;28;20058;-75
2022/10/19 05:10:00;;;;;;;8.70;2.30;;;;;;;;;;5030817;28;20049;-75
2022/10/19 05:12:26;;;;;;;5.85;2.33;;;;;;;;;;5027732;28;20075;-76
2022/10/19 05:14:57;;;;;;;10.27;3.97;;;;;;;;;;5028313;28;20041;-76
2022/10/19 05:17:23;;;;;;;9.05;4.38;;;;;;;;;;5022296;28;20128;-75
2022/10/19 05:19:49;;;;;;;9.25;2.70;;;;;;;;;;5026289;28;20183;-75
2022/10/19 05:22:15;;;;;;;10.18;3.60;;;;;;;;;;5019119;28;20393;-75
2022/10/19 05:24:41;;;;;;;9.20;2.63;;;;;;;;;;5016914;28;20042;-75
2022/10/19 05:27:07;;;;;;;4.25;2.00;;;;;;;;;;5029846;28;20045;-75
2022/10/19 05:29:33;;;;;;;5.80;2.17;;;;;;;;;;5020773;28;20489;-75
2022/10/19 05:32:02;;;;;;;4.97;2.13;;;;;;;;;;5027185;28;20038;-75
2022/10/19 05:34:28;;;;;;;11.15;2.55;;;;;;;;;;5028774;28;20068;-75
2022/10/19 05:36:55;;;;;;;9.02;2.90;;;;;;;;;;5024021;28;20409;-75
2022/10/19 05:39:22;;;;;;;9.60;2.58;;;;;;;;;;5022583;28;20053;-76
2022/10/19 05:41:48;;;;;;;7.90;2.47;;;;;;;;;;5023647;28;20049;-75
2022/10/19 05:44:18;;;;;;;6.28;2.53;;;;;;;;;;5025348;28;21996;-76
2022/10/19 05:46:44;;;;;;;8.40;2.75;;;;;;;;;;5025797;28;20049;-75
2022/10/19 05:49:11;;;;;;;8.82;2.50;;;;;;;;;;5027611;28;20041;-75
2022/10/19 05:51:40;;;;;;;4.03;2.25;;;;;;;;;;5030769;28;20507;-75
2022/10/19 05:54:07;;;;;;;8.52;2.55;;;;;;;;;;5019031;28;20107;-76
2022/10/19 05:56:33;;;;;;;8.57;2.60;;;;;;;;;;5026544;28;20048;-75
2022/10/19 05:59:01;;;;;;;8.43;2.50;;;;;;;;;;5028700;28;20061;-75
2022/10/19 06:01:28;;;;;;;6.10;2.35;;;;;;;;;;5029451;28;20049;-75
2022/10/19 06:03:54;;;;;;;8.77;2.70;;;;;;;;;;5031804;28;20056;-75
2022/10/19 06:06:21;;;;;;;9.25;2.55;;;;;;;;;;5028818;28;20555;-75
2022/10/19 06:08:47;;;;;;;7.57;2.33;;;;;;;;;;5018986;28;20096;-75
2022/10/19 06:11:15;;;;;;;9.65;2.88;;;;;;;;;;5010779;28;20445;-75
2022/10/19 06:13:42;;;;;;;5.40;2.50;;;;;;;;;;5030487;28;20137;-75
2022/10/19 06:16:08;;;;;;;9.70;2.75;;;;;;;;;;5022227;28;20042;-75
2022/10/19 06:18:34;;;;;;;8.57;2.95;;;;;;;;;;5010136;28;20077;-75
2022/10/19 06:21:02;;;;;;;8.55;2.88;;;;;;;;;;5032242;28;20052;-75
2022/10/19 06:23:28;;;;;;;8.00;3.08;;;;;;;;;;5032281;28;20061;-75
2022/10/19 06:25:54;;;;;;;7.90;2.70;;;;;;;;;;5033998;28;20480;-75
2022/10/19 06:28:20;;;;;;;7.10;2.97;;;;;;;;;;5029461;28;20042;-75
2022/10/19 06:30:46;;;;;;;12.60;2.80;;;;;;;;;;5033049;28;20124;-75
2022/10/19 06:33:12;;;;;;;7.68;2.60;;;;;;;;;;5033777;28;20079;-75
2022/10/19 06:35:41;;;;;;;10.10;2.60;;;;;;;;;;5033145;28;20046;-75
2022/10/19 06:38:08;;;;;;;7.95;2.65;;;;;;;;;;5031591;28;20041;-75
2022/10/19 06:40:35;;;;;;;6.70;2.42;;;;;;;;;;5034431;28;20131;-76
2022/10/19 06:43:01;;;;;;;6.65;2.38;;;;;;;;;;5029364;28;20037;-76
2022/10/19 06:45:27;;;;;;;5.95;2.30;;;;;;;;;;5034215;28;20091;-76
2022/10/19 06:47:53;;;;;;;8.15;2.60;;;;;;;;;;5026543;28;20120;-75
2022/10/19 06:50:19;;;;;;;7.80;2.70;;;;;;;;;;5024204;28;20528;-75
2022/10/19 06:52:46;;;;;;;9.15;3.00;;;;;;;;;;5033151;28;20042;-76
2022/10/19 06:55:12;;;;;;;6.63;2.60;;;;;;;;;;5024102;28;20045;-76
2022/10/19 06:57:38;;;;;;;7.78;2.65;;;;;;;;;;5032430;28;20106;-75
2022/10/19 07:00:05;;;;;;;11.85;3.05;;;;;;;;;;5025898;28;20508;-77
2022/10/19 07:02:32;;;;;;;8.57;3.08;;;;;;;;;;5018859;28;20038;-76
2022/10/19 07:04:58;;;;;;;7.88;2.70;;;;;;;;;;5032197;28;20052;-76
2022/10/19 07:07:27;;;;;;;13.55;2.92;;;;;;;;;;5031824;28;20056;-76
2022/10/19 07:09:53;;;;;;;8.90;2.72;;;;;;;;;;5030537;28;20045;-77
2022/10/19 07:12:19;;;;;;;6.93;2.60;;;;;;;;;;5029340;28;20401;-78
2022/10/19 07:14:46;;;;;;;8.30;2.72;;;;;;;;;;5023213;28;20851;-79
2022/10/19 07:17:13;;;;;;;5.80;2.50;;;;;;;;;;5034259;28;20201;-79
2022/10/19 07:19:39;;;;;;;6.95;2.13;;;;;;;;;;5033100;28;20045;-80
2022/10/19 07:22:05;;;;;;;4.85;2.25;;;;;;;;;;5026627;28;20037;-76
2022/10/19 07:24:31;;;;;;;7.05;2.40;;;;;;;;;;5028881;28;20037;-77
2022/10/19 07:27:00;;;;;;;9.52;2.50;;;;;;;;;;5032835;28;20049;-77
2022/10/19 07:29:26;;;;;;;7.25;2.60;;;;;;;;;;5030363;28;20041;-77
2022/10/19 07:31:52;;;;;;;5.60;2.22;;;;;;;;;;5024441;28;20060;-77
2022/10/19 07:34:18;;;;;;;6.43;2.38;;;;;;;;;;5025890;28;20477;-77
2022/10/19 07:36:46;;;;;;;9.27;2.60;;;;;;;;;;5020822;28;20041;-77
2022/10/19 07:39:13;;;;;;;9.27;3.13;;;;;;;;;;5027201;28;20504;-77
2022/10/19 07:41:39;;;;;;;8.43;2.60;;;;;;;;;;5027482;28;20046;-77
2022/10/19 07:44:05;;;;;;;7.95;2.25;;;;;;;;;;5027644;28;20042;-79
2022/10/19 07:46:32;;;;;;;11.48;2.42;;;;;;;;;;5029777;28;20045;-76
2022/10/19 07:48:59;;;;;;;6.18;2.63;;;;;;;;;;5027672;28;20129;-77
2022/10/19 07:51:25;;;;;;;6.50;2.30;;;;;;;;;;5028523;28;20043;-76
2022/10/19 07:53:51;;;;;;;7.00;2.50;;;;;;;;;;5029443;28;20064;-76
2022/10/19 07:56:18;;;;;;;8.02;2.47;;;;;;;;;;5025270;28;20095;-77
2022/10/19 07:58:45;;;;;;;6.07;2.22;;;;;;;;;;5026209;28;20085;-78
2022/10/19 08:01:12;;;;;;;6.57;2.40;;;;;;;;;;5023797;28;20044;-78
2022/10/19 08:03:39;;;;;;;9.90;2.90;;;;;;;;;;5027687;28;20059;-78
2022/10/19 08:06:06;;;;;;;5.70;2.08;;;;;;;;;;5028055;28;20052;-78
2022/10/19 08:08:32;;;;;;;7.88;2.60;;;;;;;;;;5028875;28;20073;-78
2022/10/19 08:11:05;;;;;;;6.93;2.30;;;;;;;;;;5027954;28;20084;-79
2022/10/19 08:13:31;;;;;;;8.07;2.38;;;;;;;;;;5036908;28;20077;-80
2022/10/19 08:15:57;;;;;;;6.57;2.35;;;;;;;;;;5031602;28;20397;-79
2022/10/19 08:18:23;;;;;;;9.45;2.30;;;;;;;;;;5024467;28;20037;-80
2022/10/19 08:20:49;;;;;;;7.53;2.25;;;;;;;;;;5028113;28;20188;-82
2022/10/19 08:23:21;;;;;;;8.60;3.15;;;;;;;;;;5024421;28;20456;-80
2022/10/19 08:25:48;;;;;;;5.88;2.35;;;;;;;;;;5027780;28;20532;-76
2022/10/19 08:28:14;;;;;;;5.28;2.30;;;;;;;;;;5029292;28;20057;-79
2022/10/19 08:30:40;;;;;;;10.15;2.20;;;;;;;;;;5024877;28;20480;-77
2022/10/19 08:33:07;;;;;;;6.60;2.10;;;;;;;;;;5025304;28;20148;-78
2022/10/19 08:35:33;;;;;;;6.18;2.10;;;;;;;;;;5029268;28;20087;-75
2022/10/19 08:38:00;;;;;;;7.40;2.72;;;;;;;;;;5028871;28;20053;-77
2022/10/19 08:40:28;;;;;;;9.35;2.78;;;;;;;;;;5024851;28;20081;-77
2022/10/19 08:43:09;;;;;;;10.80;2.50;;;;;;;;;;5021449;28;20045;-77
2022/10/19 08:46:00;;;;;;;8.45;2.40;;;;;;;;;;5027599;28;20041;-78
2022/10/19 08:48:35;;;;;;;8.65;2.42;;;;;;;;;;5030605;28;20050;-78
2022/10/19 08:51:02;;;;;;;9.30;2.35;;;;;;;;;;5026544;28;20041;-76
2022/10/19 08:53:31;;;;;;;8.15;2.25;;;;;;;;;;5025567;28;20534;-80
2022/10/19 08:56:16;;;;;;;10.35;2.53;;;;;;;;;;5025695;28;20123;-78
2022/10/19 08:58:42;;;;;;;9.60;2.60;;;;;;;;;;5027407;28;20050;-78
2022/10/19 09:01:15;;;;;;;7.25;2.50;;;;;;;;;;5024263;28;20056;-78
2022/10/19 09:03:41;;;;;;;8.35;2.10;;;;;;;;;;5025298;28;20477;-78
2022/10/19 09:06:22;;;;;;;8.60;2.53;;;;;;;;;;5026966;28;20393;-79
2022/10/19 09:08:50;;;;;;;7.85;2.65;;;;;;;;;;5024028;28;20045;-79
2022/10/19 09:11:19;;;;;;;4.72;1.98;;;;;;;;;;5022147;28;20473;-80
2022/10/19 09:13:46;;;;;;;7.53;2.03;;;;;;;;;;5024937;28;20049;-79
2022/10/19 09:16:14;;;;;;;9.25;2.15;;;;;;;;;;5026763;28;20048;-78
2022/10/19 09:18:41;;;;;;;8.00;2.35;;;;;;;;;;5029400;28;20041;-78
2022/10/19 09:21:26;;;;;;;8.00;2.55;;;;;;;;;;5026301;28;20041;-79
2022/10/19 09:23:54;;;;;;;6.93;2.17;;;;;;;;;;5019920;28;20517;-79
2022/10/19 09:26:22;;;;;;;8.30;2.30;;;;;;;;;;5026843;28;20083;-78
2022/10/19 09:28:48;;;;;;;6.80;2.20;;;;;;;;;;5027578;28;20045;-78
2022/10/19 09:31:21;;;;;;;5.47;2.20;;;;;;;;;;5026294;28;20045;-78
2022/10/19 09:33:50;;;;;;;5.78;2.15;;;;;;;;;;5028201;28;20042;-78
2022/10/19 09:36:16;;;;;;;7.20;2.35;;;;;;;;;;5022533;28;20149;-78
2022/10/19 09:38:47;;;;;;;6.28;2.30;;;;;;;;;;5027665;28;20120;-77
2022/10/19 09:41:16;;;;;;;5.65;2.58;;;;;;;;;;5021465;28;20045;-77
2022/10/19 09:43:49;;;;;;;6.43;2.30;;;;;;;;;;5023767;28;20038;-78
2022/10/19 09:46:25;;;;;;;5.93;2.22;;;;;;;;;;5026261;28;20046;-80
2022/10/19 09:48:52;;;;;;;7.82;2.22;;;;;;;;;;5024503;28;20053;-79
2022/10/19 09:51:18;;;;;;;4.78;1.90;;;;;;;;;;5026278;28;20045;-78
2022/10/19 09:53:45;;;;;;;4.90;1.80;;;;;;;;;;5023738;28;20098;-75
2022/10/19 09:56:17;;;;;;;6.53;2.13;;;;;;;;;;5024571;28;20049;-75
2022/10/19 09:58:54;;;;;;;7.27;2.30;;;;;;;;;;5026938;28;20079;-76
2022/10/19 10:01:36;;;;;;;7.80;2.38;;;;;;;;;;5024792;28;20046;-76
2022/10/19 10:04:35;;;;;;;8.32;2.42;;;;;;;;;;5020118;28;20057;-76
2022/10/19 10:07:01;;;;;;;6.85;2.50;;;;;;;;;;5025326;28;20049;-76
2022/10/19 10:09:28;;;;;;;6.15;2.33;;;;;;;;;;5022963;28;20140;-76
2022/10/19 10:11:57;;;;;;;6.32;2.10;;;;;;;;;;5024543;28;20363;-77
2022/10/19 10:14:26;;;;;;;6.15;2.40;;;;;;;;;;5023099;28;20045;-77
2022/10/19 10:16:56;;;;;;;6.18;2.33;;;;;;;;;;5027184;28;20548;-77
2022/10/19 10:19:37;;;;;;;8.43;2.47;;;;;;;;;;5025384;28;20095;-77
2022/10/19 10:22:03;;;;;;;5.90;1.90;;;;;;;;;;5026558;28;20055;-77
2022/10/19 10:24:30;;;;;;;5.65;2.10;;;;;;;;;;5025117;28;20095;-77
2022/10/19 10:27:01;;;;;;;6.53;2.13;;;;;;;;;;5024216;28;20054;-77
2022/10/19 10:29:34;;;;;;;9.05;2.33;;;;;;;;;;5022269;28;20100;-77
2022/10/19 10:32:00;;;;;;;;;;;;;;;;;;5026298;28;20038;-80
2022/10/19 10:34:40;;;;;;;6.80;2.30;;;;;;;;;;5025061;28;19928;-78
2022/10/19 10:37:07;;;;;;;6.30;2.17;;;;;;;;;;5024907;28;20128;-77
2022/10/19 10:39:39;;;;;;;5.65;2.38;;;;;;;;;;5023403;28;20041;-76
2022/10/19 10:42:08;;;;;;;4.88;2.00;;;;;;;;;;5022581;28;20133;-75
2022/10/19 10:44:40;;;;;;;6.70;2.13;;;;;;;;;;5020520;28;20054;-75
2022/10/19 10:47:13;;;;;;;15.07;2.95;;;;;;;;;;5026212;28;20488;-75
2022/10/19 10:49:41;;;;;;;6.72;1.95;;;;;;;;;;5024906;28;20053;-75
2022/10/19 10:52:11;;;;;;;6.28;2.50;;;;;;;;;;5019804;28;20041;-75
2022/10/19 10:54:37;;;;;;;5.82;2.10;;;;;;;;;;5022029;28;20394;-75
2022/10/19 10:57:17;;;;;;;8.00;2.10;;;;;;;;;;5024275;28;20075;-76
2022/10/19 10:59:50;;;;;;;8.38;2.17;;;;;;;;;;5024011;28;20053;-75
2022/10/19 11:02:35;;;;;;;5.03;1.92;;;;;;;;;;5019533;28;20394;-74
2022/10/19 11:05:05;;;;;;;5.32;1.92;;;;;;;;;;5025270;28;20050;-75
2022/10/19 11:07:33;;;;;;;4.50;1.88;;;;;;;;;;5024475;28;20056;-76
2022/10/19 11:10:01;;;;;;;7.85;2.25;;;;;;;;;;5026445;28;20136;-76
2022/10/19 11:12:36;;;;;;;6.13;2.35;;;;;;;;;;5027623;28;20060;-77
2022/10/19 11:15:05;;;;;;;7.10;2.42;;;;;;;;;;5023031;28;20053;-76
2022/10/19 11:17:36;;;;;;;9.90;2.10;;;;;;;;;;5027137;28;20038;-77
2022/10/19 11:20:02;;;;;;;4.55;2.20;;;;;;;;;;5030871;28;20085;-76
2022/10/19 11:22:50;;;;;;;5.90;2.38;;;;;;;;;;5030398;28;20061;-76
2022/10/19 11:25:22;;;;;;;5.68;2.10;;;;;;;;;;5028481;28;20068;-77
2022/10/19 11:28:07;;;;;;;9.02;2.22;;;;;;;;;;5020423;28;20445;-75
2022/10/19 11:30:37;;;;;;;5.78;2.13;;;;;;;;;;5028822;28;20041;-75
2022/10/19 11:33:15;;;;;;;4.28;2.00;;;;;;;;;;5028005;28;20041;-76
2022/10/19 11:35:41;;;;;;;6.60;2.22;;;;;;;;;;5026241;28;20115;-77
2022/10/19 11:38:10;;;;;;;5.70;1.88;;;;;;;;;;5031861;28;20572;-77
2022/10/19 11:40:39;;;;;;;6.45;2.00;;;;;;;;;;5025941;28;20046;-79
2022/10/19 11:43:09;;;;;;;6.43;2.00;;;;;;;;;;5026485;28;20132;-78
2022/10/19 11:45:43;;;;;;;7.65;2.15;;;;;;;;;;5027526;28;20133;-78
2022/10/19 11:48:24;;;;;;;6.45;2.35;;;;;;;;;;5025497;28;20053;-76
2022/10/19 11:51:11;;;;;;;9.57;2.97;;;;;;;;;;5024197;28;20600;-75
2022/10/19 11:54:00;;;;;;;4.50;2.05;;;;;;;;;;5023897;28;20053;-75
2022/10/19 11:56:43;;;;;;;4.97;2.25;;;;;;;;;;5016782;28;21489;-75
2022/10/19 11:59:14;;;;;;;6.07;2.53;;;;;;;;;;5024875;28;20053;-73
2022/10/19 12:01:40;;;;;;;6.72;2.28;;;;;;;;;;5027511;28;20045;-73
2022/10/19 12:04:12;;;;;;;7.00;2.30;;;;;;;;;;5028794;28;20386;-73
2022/10/19 12:06:38;;;;;;;4.05;2.00;;;;;;;;;;5028084;28;20063;-75
2022/10/19 12:09:24;;;;;;;6.13;2.20;;;;;;;;;;5027897;28;20045;-73
2022/10/19 12:11:59;;;;;;;4.35;2.17;;;;;;;;;;5025586;28;20053;-77
2022/10/19 12:14:31;;;;;;;6.32;1.88;;;;;;;;;;5026978;28;20065;-74
2022/10/19 12:16:59;;;;;;;6.50;2.20;;;;;;;;;;5025313;28;20460;-74
2022/10/19 12:19:28;;;;;;;6.72;2.40;;;;;;;;;;5027381;28;20042;-74
2022/10/19 12:21:55;;;;;;;6.15;2.20;;;;;;;;;;5032040;28;20110;-74
2022/10/19 12:24:24;;;;;;;6.20;2.40;;;;;;;;;;5027441;28;20513;-80
2022/10/19 12:26:50;;;;;;;6.68;2.28;;;;;;;;;;5024775;28;20040;-74
2022/10/19 12:29:19;;;;;;;7.47;2.28;;;;;;;;;;5031281;28;20497;-77
2022/10/19 12:31:46;;;;;;;4.35;2.00;;;;;;;;;;5027066;28;20128;-73
2022/10/19 12:34:15;;;;;;;7.90;2.50;;;;;;;;;;5020073;28;20077;-74
2022/10/19 12:36:54;;;;;;;6.15;1.83;;;;;;;;;;5027514;28;20136;-73
2022/10/19 12:39:23;;;;;;;7.60;2.20;;;;;;;;;;5023231;28;20041;-73
2022/10/19 12:42:09;;;;;;;6.20;2.22;;;;;;;;;;5028745;28;20060;-73
2022/10/19 12:44:54;;;;;;;5.93;1.90;;;;;;;;;;5023787;28;20049;-73
2022/10/19 12:47:21;;;;;;;4.47;1.95;;;;;;;;;;5006558;28;20108;-73
2022/10/19 12:49:52;;;;;;;5.35;2.30;;;;;;;;;;5027479;28;20050;-73
2022/10/19 12:52:38;;;;;;;7.32;2.53;;;;;;;;;;5021786;28;20045;-73
2022/10/19 12:55:16;;;;;;;7.15;2.30;;;;;;;;;;5030595;28;20042;-73
2022/10/19 12:57:46;;;;;;;6.07;1.90;;;;;;;;;;5027514;28;20045;-73
2022/10/19 13:00:22;;;;;;;4.05;2.05;;;;;;;;;;5024942;28;20060;-73
2022/10/19 13:02:56;;;;;;;6.38;2.00;;;;;;;;;;5024529;28;20052;-73
2022/10/19 13:05:23;;;;;;;5.05;1.92;;;;;;;;;;5029187;28;20041;-73
2022/10/19 13:07:51;;;;;;;5.38;1.95;;;;;;;;;;5025550;28;20056;-73
2022/10/19 13:10:19;;;;;;;6.45;2.08;;;;;;;;;;5025778;28;20099;-73
2022/10/19 13:12:46;;;;;;;3.30;1.60;;;;;;;;;;5024157;28;20053;-75
2022/10/19 13:15:31;;;;;;;4.13;1.90;;;;;;;;;;5023358;28;20088;-75
2022/10/19 13:17:57;;;;;;;5.05;2.10;;;;;;;;;;5027033;28;20048;-75
2022/10/19 13:20:24;;;;;;;7.45;2.15;;;;;;;;;;5020848;28;20052;-75
2022/10/19 13:22:50;;;;;;;6.90;1.77;;;;;;;;;;5026213;28;20056;-75
2022/10/19 13:25:16;;;;;;;5.35;1.70;;;;;;;;;;5022226;28;20053;-75
2022/10/19 13:27:46;;;;;;;4.65;1.77;;;;;;;;;;5026497;28;20069;-75
2022/10/19 13:30:47;;;;;;;3.25;1.73;;;;;;;;;;5022844;28;20508;-76
2022/10/19 13:33:31;;;;;;;5.82;2.15;;;;;;;;;;4966719;28;20133;-75
2022/10/19 13:36:01;;;;;;;4.00;2.25;;;;;;;;;;5015824;28;20087;-75
2022/10/19 13:38:27;;;;;;;4.47;1.90;;;;;;;;;;5020666;28;20049;-75
2022/10/19 13:41:11;;;;;;;4.28;1.90;;;;;;;;;;5019905;28;21098;-75
2022/10/19 13:43:43;;;;;;;4.22;2.13;;;;;;;;;;5020835;28;20366;-75
2022/10/19 13:46:12;;;;;;;2.85;1.90;;;;;;;;;;5035293;28;20053;-76
2022/10/19 13:48:56;;;;;;;5.20;2.10;;;;;;;;;;5025182;28;20100;-75
2022/10/19 13:51:22;;;;;;;7.50;2.05;;;;;;;;;;5025670;28;20488;-76
2022/10/19 13:54:12;;;;;;;3.08;1.73;;;;;;;;;;5023117;28;20341;-75
2022/10/19 13:56:41;;;;;;;6.38;1.95;;;;;;;;;;4985555;28;20049;-77
2022/10/19 13:59:10;;;;;;;5.72;2.22;;;;;;;;;;5019642;28;20045;-76
2022/10/19 14:01:45;;;;;;;5.88;2.15;;;;;;;;;;5024339;28;20038;-76
2022/10/19 14:04:20;;;;;;;4.93;1.95;;;;;;;;;;5025095;28;20488;-76
2022/10/19 14:07:00;;;;;;;3.80;1.95;;;;;;;;;;5018584;28;20103;-75
2022/10/19 14:09:39;;;;;;;3.00;1.80;;;;;;;;;;5023487;28;20064;-76
2022/10/19 14:12:16;;;;;;;6.03;2.00;;;;;;;;;;5027871;28;20548;-77
2022/10/19 14:14:43;;;;;;;5.82;1.80;;;;;;;;;;5028199;28;20432;-75
2022/10/19 14:17:27;;;;;;;4.72;1.98;;;;;;;;;;5019855;28;20453;-72
2022/10/19 14:19:55;;;;;;;5.38;1.98;;;;;;;;;;5025333;28;20049;-73
2022/10/19 14:22:29;;;;;;;3.95;1.90;;;;;;;;;;5012991;28;20139;-74
2022/10/19 14:25:03;;;;;;;4.72;2.20;;;;;;;;;;5019001;28;20132;-73
2022/10/19 14:27:30;;;;;;;4.45;1.90;;;;;;;;;;5026225;28;20050;-74
2022/10/19 14:29:56;;;;;;;3.65;2.08;;;;;;;;;;5024300;28;20516;-74
2022/10/19 14:32:24;;;;;;;6.30;2.20;;;;;;;;;;5017843;28;20072;-73
2022/10/19 14:34:51;;;;;;;4.43;2.10;;;;;;;;;;5021996;28;20045;-73
2022/10/19 14:37:22;;;;;;;6.07;1.90;;;;;;;;;;5019901;28;20056;-74
2022/10/19 14:39:57;;;;;;;5.35;2.08;;;;;;;;;;5014636;28;20045;-73
2022/10/19 14:42:23;;;;;;;3.47;2.10;;;;;;;;;;5033621;28;20041;-73
2022/10/19 14:44:49;;;;;;;4.50;2.00;;;;;;;;;;5029238;28;20045;-73
2022/10/19 14:47:20;;;;;;;6.10;2.13;;;;;;;;;;5031569;28;20558;-73
2022/10/19 14:49:46;;;;;;;3.70;1.95;;;;;;;;;;5022799;28;20187;-75
2022/10/19 14:52:15;;;;;;;3.90;2.10;;;;;;;;;;5021530;28;20511;-75
2022/10/19 14:54:42;;;;;;;5.40;2.13;;;;;;;;;;5024021;28;20041;-75
2022/10/19 14:57:14;;;;;;;6.07;2.10;;;;;;;;;;5024926;28;20483;-75